createdAt,value
2019-02-21T00:00:24.146Z,4.67
2019-02-21T00:02:47.590Z,4.07
2019-02-21T00:05:14.449Z,4.10
2019-02-21T00:07:41.198Z,4.50
2019-02-21T00:10:08.106Z,4.43
2019-02-21T00:12:35.015Z,4.67
2019-02-21T00:15:02.115Z,3.77
2019-02-21T00:17:30.417Z,4.33
2019-02-21T00:19:57.542Z,3.87
2019-02-21T00:22:24.356Z,3.40
2019-02-21T00:24:51.158Z,3.30
2019-02-21T00:27:17.824Z,3.83
2019-02-21T00:29:44.530Z,3.30
2019-02-21T00:32:11.216Z,3.60
2019-02-21T00:34:38.147Z,3.40
2019-02-21T00:37:05.118Z,3.07
2019-02-21T00:39:32.239Z,3.43
2019-02-21T00:41:59.358Z,2.83
2019-02-21T00:44:26.462Z,2.90
2019-02-21T00:46:54.679Z,3.23
2019-02-21T00:49:21.851Z,3.40
2019-02-21T00:51:48.973Z,4.07
2019-02-21T00:55:12.335Z,3.13
2019-02-21T00:57:39.062Z,3.33
2019-02-21T01:00:11.456Z,3.50
2019-02-21T01:03:34.663Z,3.70
2019-02-21T01:06:01.768Z,3.00
2019-02-21T01:08:28.876Z,3.53
2019-02-21T01:10:55.511Z,3.07
2019-02-21T01:13:22.211Z,3.40
2019-02-21T01:15:48.783Z,4.07
2019-02-21T01:18:15.433Z,3.83
2019-02-21T01:20:42.126Z,3.67
2019-02-21T01:23:08.889Z,2.83
2019-02-21T01:25:35.452Z,3.77
2019-02-21T01:28:02.258Z,3.73
2019-02-21T01:30:29.013Z,3.97
2019-02-21T01:32:55.776Z,4.30
2019-02-21T01:35:22.413Z,3.80
2019-02-21T01:38:45.478Z,4.13
2019-02-21T01:41:12.507Z,3.80
2019-02-21T01:43:39.179Z,3.80
2019-02-21T01:46:05.732Z,4.00
2019-02-21T01:48:33.735Z,4.20
2019-02-21T01:51:00.399Z,3.20
2019-02-21T01:53:27.141Z,3.43
2019-02-21T01:55:53.745Z,3.23
2019-02-21T01:58:21.525Z,3.30
2019-02-21T02:00:48.150Z,3.37
2019-02-21T02:03:14.898Z,3.23
2019-02-21T02:05:41.564Z,3.97
2019-02-21T02:08:08.228Z,3.90
2019-02-21T02:10:34.822Z,3.53
2019-02-21T02:13:01.495Z,3.90
2019-02-21T02:15:28.338Z,4.70
2019-02-21T02:17:54.889Z,6.03
2019-02-21T02:20:21.534Z,7.00
2019-02-21T02:22:48.325Z,8.80
2019-02-21T02:25:14.937Z,7.17
2019-02-21T02:27:41.515Z,8.23
2019-02-21T02:30:08.504Z,7.63
2019-02-21T02:32:35.161Z,8.77
2019-02-21T02:35:03.026Z,9.30
2019-02-21T02:37:29.723Z,9.33
2019-02-21T02:39:56.400Z,8.83
2019-02-21T02:42:22.977Z,9.20
2019-02-21T02:44:49.557Z,8.33
2019-02-21T02:47:16.116Z,8.73
2019-02-21T02:49:42.701Z,8.43
2019-02-21T02:52:09.342Z,9.03
2019-02-21T02:54:35.982Z,10.27
2019-02-21T02:57:02.656Z,9.87
2019-02-21T02:59:40.388Z,8.80
2019-02-21T03:01:57.986Z,8.60
2019-02-21T03:04:24.767Z,8.07
2019-02-21T03:06:51.599Z,7.63
2019-02-21T03:09:18.275Z,7.80
2019-02-21T03:11:44.912Z,8.67
2019-02-21T03:14:11.493Z,9.73
2019-02-21T03:16:38.186Z,11.07
2019-02-21T03:19:04.907Z,11.70
2019-02-21T03:21:34.848Z,10.93
2019-02-21T03:24:04.472Z,11.67
2019-02-21T03:26:31.071Z,10.60
2019-02-21T03:28:57.714Z,10.53
2019-02-21T03:31:24.298Z,11.17
2019-02-21T03:33:51.070Z,28.20
2019-02-21T03:36:19.026Z,28.00
2019-02-21T03:38:46.408Z,27.53
2019-02-21T03:41:12.988Z,25.53
2019-02-21T03:43:39.714Z,22.63
2019-02-21T03:46:06.280Z,20.47
2019-02-21T03:48:32.970Z,18.40
2019-02-21T03:50:59.544Z,16.70
2019-02-21T03:53:26.133Z,19.13
2019-02-21T03:55:53.053Z,22.00
2019-02-21T03:58:19.822Z,24.17
2019-02-21T04:00:46.750Z,19.63
2019-02-21T04:03:13.602Z,19.70
2019-02-21T04:05:40.902Z,15.43
2019-02-21T04:08:07.551Z,20.93
2019-02-21T04:10:35.343Z,29.30
2019-02-21T04:13:02.407Z,34.77
2019-02-21T04:15:29.494Z,42.77
2019-02-21T04:17:57.446Z,71.40
2019-02-21T04:20:24.111Z,69.73
2019-02-21T04:22:50.809Z,74.47
2019-02-21T04:25:17.369Z,75.90
2019-02-21T04:27:44.098Z,50.63
2019-02-21T04:30:10.744Z,44.97
2019-02-21T04:32:37.297Z,35.33
2019-02-21T04:35:04.817Z,34.07
2019-02-21T04:37:31.744Z,15.30
2019-02-21T04:39:58.535Z,10.93
2019-02-21T04:42:25.178Z,10.63
2019-02-21T04:44:52.944Z,9.77
2019-02-21T04:47:19.537Z,10.10
2019-02-21T04:49:46.085Z,14.10
2019-02-21T04:52:12.664Z,14.73
2019-02-21T04:54:39.242Z,19.47
2019-02-21T04:57:05.881Z,24.23
2019-02-21T04:59:32.835Z,32.07
2019-02-21T05:01:59.459Z,33.33
2019-02-21T05:04:26.015Z,27.77
2019-02-21T05:06:52.945Z,26.83
2019-02-21T05:09:19.561Z,18.57
2019-02-21T05:11:46.195Z,17.53
2019-02-21T05:14:12.842Z,13.43
2019-02-21T05:16:39.636Z,12.60
2019-02-21T05:19:06.314Z,11.17
2019-02-21T05:21:33.045Z,10.70
2019-02-21T05:23:59.622Z,10.43
2019-02-21T05:26:28.260Z,10.80
2019-02-21T05:28:54.906Z,10.73
2019-02-21T05:31:23.533Z,11.20
2019-02-21T05:33:52.238Z,11.03
2019-02-21T05:36:20.732Z,11.60
2019-02-21T05:38:49.303Z,10.83
2019-02-21T05:41:17.933Z,12.47
2019-02-21T05:43:46.440Z,12.23
2019-02-21T05:46:15.487Z,13.40
2019-02-21T05:48:44.088Z,11.80
2019-02-21T05:51:12.685Z,15.20
2019-02-21T05:53:41.207Z,15.20
2019-02-21T05:56:09.758Z,15.90
2019-02-21T05:58:38.248Z,17.23
2019-02-21T06:01:07.045Z,16.63
2019-02-21T06:03:36.171Z,16.90
2019-02-21T06:06:05.154Z,16.20
2019-02-21T06:08:33.703Z,16.80
2019-02-21T06:11:02.215Z,17.80
2019-02-21T06:13:30.790Z,18.03
2019-02-21T06:15:59.430Z,16.93
2019-02-21T06:18:29.109Z,13.43
2019-02-21T06:20:57.913Z,12.83
2019-02-21T06:23:26.515Z,11.73
2019-02-21T06:25:58.828Z,13.27
2019-02-21T06:28:27.001Z,13.63
2019-02-21T06:30:55.517Z,18.03
2019-02-21T06:33:22.163Z,15.80
2019-02-21T06:36:44.998Z,15.40
2019-02-21T06:39:11.772Z,17.00
2019-02-21T06:41:38.474Z,16.30
2019-02-21T06:44:05.192Z,17.70
2019-02-21T06:46:31.786Z,17.40
2019-02-21T06:48:58.482Z,17.70
2019-02-21T06:51:25.113Z,16.43
2019-02-21T06:53:53.159Z,15.97
2019-02-21T06:56:21.551Z,15.87
2019-02-21T06:58:48.098Z,15.80
2019-02-21T07:01:25.409Z,16.20
2019-02-21T07:03:43.361Z,15.50
2019-02-21T07:06:09.990Z,14.57
2019-02-21T07:08:36.547Z,16.50
2019-02-21T07:11:06.331Z,16.23
2019-02-21T07:13:31.793Z,17.50
2019-02-21T07:15:58.683Z,16.63
2019-02-21T07:18:25.525Z,15.27
2019-02-21T07:20:52.409Z,15.40
2019-02-21T07:23:19.437Z,15.43
2019-02-21T07:25:47.707Z,16.30
2019-02-21T07:28:15.957Z,15.63
2019-02-21T07:30:43.100Z,16.23
2019-02-21T07:33:10.019Z,16.90
2019-02-21T07:35:36.684Z,16.03
2019-02-21T07:38:03.582Z,16.80
2019-02-21T07:40:30.302Z,16.63
2019-02-21T07:42:58.728Z,16.43
2019-02-21T07:45:25.414Z,17.67
2019-02-21T07:47:52.704Z,17.70
2019-02-21T07:50:19.546Z,19.97
2019-02-21T07:52:46.127Z,20.33
2019-02-21T07:55:13.033Z,19.80
2019-02-21T07:57:39.900Z,23.93
2019-02-21T08:00:10.888Z,22.43
2019-02-21T08:02:37.477Z,23.50
2019-02-21T08:05:06.702Z,23.00
2019-02-21T08:07:33.316Z,20.10
2019-02-21T08:09:59.905Z,23.03
2019-02-21T08:12:26.534Z,21.13
2019-02-21T08:14:56.149Z,19.77
2019-02-21T08:17:21.921Z,20.37
2019-02-21T08:19:48.550Z,21.20
2019-02-21T08:22:15.292Z,20.63
2019-02-21T08:24:42.071Z,19.63
2019-02-21T08:27:08.688Z,19.60
2019-02-21T08:29:35.271Z,19.37
2019-02-21T08:32:01.892Z,18.53
2019-02-21T08:34:30.533Z,19.80
2019-02-21T08:36:57.333Z,18.90
2019-02-21T08:39:24.140Z,18.07
2019-02-21T08:41:51.091Z,18.73
2019-02-21T08:44:17.847Z,18.93
2019-02-21T08:46:44.408Z,18.87
2019-02-21T08:49:11.159Z,18.53
2019-02-21T08:51:37.996Z,19.43
2019-02-21T08:54:05.654Z,18.13
2019-02-21T08:56:32.883Z,18.80
2019-02-21T08:58:59.442Z,18.27
2019-02-21T09:01:26.081Z,18.50
2019-02-21T09:03:53.000Z,18.90
2019-02-21T09:06:19.682Z,19.60
2019-02-21T09:08:46.213Z,18.87
2019-02-21T09:11:14.377Z,20.13
2019-02-21T09:13:41.806Z,18.80
2019-02-21T09:16:09.087Z,19.30
2019-02-21T09:18:35.910Z,20.47
2019-02-21T09:21:02.755Z,19.53
2019-02-21T09:23:30.773Z,17.33
2019-02-21T09:25:57.537Z,18.23
2019-02-21T09:28:24.404Z,18.10
2019-02-21T09:31:47.633Z,17.93
2019-02-21T09:34:21.101Z,19.43
2019-02-21T09:36:42.941Z,18.53
2019-02-21T09:39:09.907Z,18.97
2019-02-21T09:42:33.139Z,18.70
2019-02-21T09:44:59.882Z,20.67
2019-02-21T09:47:26.519Z,23.70
2019-02-21T09:49:53.309Z,25.40
2019-02-21T09:52:20.066Z,22.97
2019-02-21T09:54:47.610Z,22.57
2019-02-21T09:57:14.598Z,20.60
2019-02-21T09:59:41.343Z,23.00
2019-02-21T10:02:08.013Z,24.70
2019-02-21T10:05:32.498Z,23.47
2019-02-21T10:07:59.306Z,22.73
2019-02-21T10:10:25.941Z,24.67
2019-02-21T10:12:52.875Z,23.67
2019-02-21T10:16:15.650Z,23.77
2019-02-21T10:18:42.498Z,24.70
2019-02-21T10:22:06.350Z,24.87
2019-02-21T10:24:33.007Z,24.23
2019-02-21T10:27:18.672Z,24.60
2019-02-21T10:29:45.314Z,25.03
2019-02-21T10:32:12.081Z,24.40
2019-02-21T10:34:43.120Z,26.23
2019-02-21T10:37:07.266Z,26.93
2019-02-21T10:39:33.831Z,27.37
2019-02-21T10:42:00.576Z,26.47
2019-02-21T10:44:27.185Z,27.43
2019-02-21T10:46:53.878Z,26.33
2019-02-21T10:49:20.725Z,24.87
2019-02-21T10:51:47.706Z,27.43
2019-02-21T10:54:14.476Z,27.50
2019-02-21T10:56:41.202Z,27.87
2019-02-21T10:59:08.016Z,27.83
2019-02-21T11:01:34.637Z,30.60
2019-02-21T11:04:01.204Z,32.53
2019-02-21T11:06:28.031Z,26.50
2019-02-21T11:08:54.695Z,26.70
2019-02-21T11:11:21.631Z,27.47
2019-02-21T11:13:48.399Z,27.03
2019-02-21T11:16:15.100Z,28.27
2019-02-21T11:18:43.033Z,26.10
2019-02-21T11:21:10.791Z,25.73
2019-02-21T11:23:37.434Z,28.93
2019-02-21T11:26:04.085Z,25.33
2019-02-21T11:28:30.770Z,24.77
2019-02-21T11:30:57.570Z,26.97
2019-02-21T11:33:24.310Z,24.03
2019-02-21T11:35:51.227Z,25.90
2019-02-21T11:38:17.843Z,23.23
2019-02-21T11:40:44.600Z,24.43
2019-02-21T11:43:11.225Z,23.10
2019-02-21T11:45:37.865Z,23.77
2019-02-21T11:48:04.915Z,23.97
2019-02-21T11:50:31.572Z,24.83
2019-02-21T11:52:58.288Z,24.83
2019-02-21T11:55:25.181Z,24.47
2019-02-21T11:57:52.097Z,24.30
2019-02-21T12:00:24.623Z,24.37
2019-02-21T12:02:51.497Z,24.80
2019-02-21T12:05:30.152Z,28.53
2019-02-21T12:07:47.660Z,25.67
2019-02-21T12:10:14.363Z,55.53
2019-02-21T12:12:41.295Z,54.53
2019-02-21T12:15:10.960Z,45.00
2019-02-21T12:17:37.888Z,40.17
2019-02-21T12:20:09.379Z,24.57
2019-02-21T12:22:36.297Z,20.77
2019-02-21T12:25:09.013Z,22.77
2019-02-21T12:27:35.737Z,21.57
2019-02-21T12:30:07.309Z,21.27
2019-02-21T12:32:33.974Z,21.67
2019-02-21T12:35:00.715Z,20.30
2019-02-21T12:37:27.323Z,20.60
2019-02-21T12:39:57.022Z,21.93
2019-02-21T12:42:23.803Z,22.80
2019-02-21T12:44:52.025Z,20.90
2019-02-21T12:47:18.817Z,19.40
2019-02-21T12:49:45.376Z,18.47
2019-02-21T12:52:12.022Z,17.30
2019-02-21T12:54:38.730Z,17.17
2019-02-21T12:57:05.341Z,17.63
2019-02-21T12:59:32.155Z,15.27
2019-02-21T13:01:58.899Z,17.97
2019-02-21T13:04:25.656Z,18.03
2019-02-21T13:06:52.331Z,16.90
2019-02-21T13:09:19.041Z,17.80
2019-02-21T13:11:45.646Z,17.07
2019-02-21T13:14:12.210Z,17.70
2019-02-21T13:16:38.963Z,18.23
2019-02-21T13:19:05.847Z,17.57
2019-02-21T13:21:32.465Z,18.47
2019-02-21T13:23:59.155Z,17.27
2019-02-21T13:26:25.840Z,17.00
2019-02-21T13:28:52.510Z,15.47
2019-02-21T13:31:20.451Z,16.03
2019-02-21T13:33:47.072Z,16.37
2019-02-21T13:36:13.819Z,15.37
2019-02-21T13:38:40.447Z,15.67
2019-02-21T13:41:07.212Z,16.53
2019-02-21T13:43:34.996Z,14.97
2019-02-21T13:46:01.632Z,15.50
2019-02-21T13:48:28.300Z,17.83
2019-02-21T13:50:54.881Z,17.43
2019-02-21T13:53:21.706Z,19.50
2019-02-21T13:55:50.881Z,16.57
2019-02-21T13:58:16.840Z,17.50
2019-02-21T14:00:43.512Z,14.63
2019-02-21T14:03:10.187Z,20.10
2019-02-21T14:05:36.809Z,16.47
2019-02-21T14:08:03.629Z,12.63
2019-02-21T14:10:30.421Z,11.80
2019-02-21T14:12:57.089Z,12.67
2019-02-21T14:15:28.008Z,11.47
2019-02-21T14:17:54.744Z,13.10
2019-02-21T14:20:21.434Z,12.80
2019-02-21T14:22:48.004Z,11.87
2019-02-21T14:25:14.709Z,13.27
2019-02-21T14:27:41.720Z,12.60
2019-02-21T14:30:13.263Z,11.40
2019-02-21T14:32:39.836Z,10.97
2019-02-21T14:36:14.764Z,14.70
2019-02-21T14:38:31.636Z,12.73
2019-02-21T14:40:59.419Z,11.43
2019-02-21T14:43:26.058Z,10.87
2019-02-21T14:45:52.882Z,32.20
2019-02-21T14:48:19.655Z,23.83
2019-02-21T14:50:46.596Z,21.23
2019-02-21T14:53:13.165Z,20.17
2019-02-21T14:55:39.853Z,18.60
2019-02-21T14:58:06.608Z,19.00
2019-02-21T15:00:33.607Z,15.23
2019-02-21T15:03:00.285Z,14.30
2019-02-21T15:05:27.112Z,37.03
2019-02-21T15:07:54.000Z,20.10
2019-02-21T15:10:21.549Z,10.03
2019-02-21T15:12:49.479Z,11.27
2019-02-21T15:15:22.190Z,25.43
2019-02-21T15:17:49.110Z,18.50
2019-02-21T15:20:17.210Z,22.57
2019-02-21T15:22:44.176Z,10.63
2019-02-21T15:25:11.206Z,13.30
2019-02-21T15:27:38.352Z,14.03
2019-02-21T15:30:13.316Z,9.30
2019-02-21T15:32:40.335Z,16.50
2019-02-21T15:35:07.337Z,30.27
2019-02-21T15:37:34.023Z,11.50
2019-02-21T15:40:00.648Z,9.93
2019-02-21T15:42:27.417Z,8.80
2019-02-21T15:44:54.088Z,9.33
2019-02-21T15:47:20.825Z,18.40
2019-02-21T15:49:47.486Z,23.23
2019-02-21T15:52:21.892Z,29.93
2019-02-21T15:54:42.683Z,41.93
2019-02-21T15:57:09.316Z,38.87
2019-02-21T15:59:36.196Z,11.77
2019-02-21T16:02:02.957Z,12.50
2019-02-21T16:04:29.518Z,17.40
2019-02-21T16:06:56.173Z,16.63
2019-02-21T16:09:25.116Z,27.97
2019-02-21T16:11:51.755Z,40.77
2019-02-21T16:15:16.369Z,41.90
2019-02-21T16:17:44.533Z,51.53
2019-02-21T16:21:07.659Z,29.80
2019-02-21T16:23:34.468Z,35.53
2019-02-21T16:26:02.419Z,33.43
2019-02-21T16:28:29.580Z,34.17
2019-02-21T16:30:56.268Z,26.40
2019-02-21T16:33:22.923Z,28.33
2019-02-21T16:35:50.271Z,23.27
2019-02-21T16:38:17.216Z,19.17
2019-02-21T16:40:44.111Z,19.07
2019-02-21T16:43:11.080Z,16.33
2019-02-21T16:45:43.394Z,15.40
2019-02-21T16:48:06.154Z,16.87
2019-02-21T16:50:32.857Z,31.43
2019-02-21T16:52:59.511Z,22.60
2019-02-21T16:55:26.588Z,25.13
2019-02-21T16:57:53.384Z,15.77
2019-02-21T17:00:22.487Z,17.63
2019-02-21T17:02:49.628Z,12.03
2019-02-21T17:05:16.727Z,11.07
2019-02-21T17:07:43.590Z,11.50
2019-02-21T17:10:13.651Z,11.37
2019-02-21T17:12:40.426Z,10.07
2019-02-21T17:15:11.235Z,9.07
2019-02-21T17:17:38.024Z,10.60
2019-02-21T17:20:10.378Z,10.10
2019-02-21T17:22:37.204Z,13.77
2019-02-21T17:25:08.378Z,12.33
2019-02-21T17:27:35.298Z,19.10
2019-02-21T17:30:07.884Z,20.57
2019-02-21T17:32:34.761Z,19.63
2019-02-21T17:35:01.635Z,36.20
2019-02-21T17:37:28.559Z,45.40
2019-02-21T17:39:56.463Z,37.67
2019-02-21T17:43:38.525Z,32.97
2019-02-21T17:46:05.525Z,36.77
2019-02-21T17:48:32.345Z,19.63
2019-02-21T17:50:59.161Z,17.00
2019-02-21T17:53:26.997Z,26.10
2019-02-21T17:55:53.974Z,19.47
2019-02-21T17:58:20.753Z,26.67
2019-02-21T18:00:47.628Z,28.20
2019-02-21T18:03:14.440Z,35.73
2019-02-21T18:05:41.056Z,34.73
2019-02-21T18:08:09.823Z,27.30
2019-02-21T18:10:37.642Z,28.67
2019-02-21T18:13:04.782Z,30.50
2019-02-21T18:15:33.108Z,29.13
2019-02-21T18:18:03.296Z,26.87
2019-02-21T18:20:29.975Z,30.00
2019-02-21T18:22:56.935Z,31.70
2019-02-21T18:25:29.199Z,43.87
2019-02-21T18:27:56.001Z,37.20
2019-02-21T18:30:22.976Z,38.80
2019-02-21T18:32:49.882Z,50.30
2019-02-21T18:35:16.857Z,32.10
2019-02-21T18:37:47.444Z,35.57
2019-02-21T18:40:20.893Z,34.57
2019-02-21T18:42:47.621Z,24.10
2019-02-21T18:45:14.475Z,21.30
2019-02-21T18:47:41.212Z,22.37
2019-02-21T18:50:11.165Z,21.43
2019-02-21T18:52:37.986Z,18.73
2019-02-21T18:55:06.683Z,16.60
2019-02-21T18:57:36.491Z,17.53
2019-02-21T19:00:08.472Z,17.07
2019-02-21T19:02:36.056Z,15.53
2019-02-21T19:05:05.786Z,17.10
2019-02-21T19:07:32.575Z,16.97
2019-02-21T19:10:02.173Z,16.90
2019-02-21T19:12:29.023Z,16.23
2019-02-21T19:14:55.823Z,16.03
2019-02-21T19:17:22.489Z,16.10
2019-02-21T19:19:49.098Z,16.40
2019-02-21T19:22:17.128Z,15.23
2019-02-21T19:24:43.699Z,14.53
2019-02-21T19:27:10.397Z,14.83
2019-02-21T19:29:37.104Z,14.03
2019-02-21T19:32:04.969Z,15.00
2019-02-21T19:34:32.237Z,13.87
2019-02-21T19:36:59.237Z,15.27
2019-02-21T19:39:26.294Z,14.47
2019-02-21T19:41:53.989Z,15.43
2019-02-21T19:44:22.351Z,15.03
2019-02-21T19:46:49.462Z,15.60
2019-02-21T19:49:16.695Z,14.10
2019-02-21T19:51:43.497Z,16.40
2019-02-21T19:54:10.336Z,15.43
2019-02-21T19:56:46.021Z,15.77
2019-02-21T19:59:15.232Z,13.27
2019-02-21T20:01:42.727Z,16.37
2019-02-21T20:04:09.757Z,14.27
2019-02-21T20:06:37.527Z,13.80
2019-02-21T20:09:04.609Z,14.97
2019-02-21T20:11:42.556Z,14.77
2019-02-21T20:14:34.315Z,12.47
2019-02-21T20:17:02.274Z,13.03
2019-02-21T20:19:44.162Z,13.97
2019-02-21T20:22:20.697Z,12.20
2019-02-21T20:24:53.160Z,13.70
2019-02-21T20:27:22.623Z,13.10
2019-02-21T20:29:49.461Z,12.20
2019-02-21T20:32:17.561Z,10.37
2019-02-21T20:34:44.352Z,10.80
2019-02-21T20:37:11.469Z,10.70
2019-02-21T20:39:38.374Z,9.30
2019-02-21T20:42:07.175Z,10.50
2019-02-21T20:44:34.350Z,9.10
2019-02-21T20:47:01.194Z,9.27
2019-02-21T20:49:28.213Z,8.80
2019-02-21T20:51:55.335Z,11.33
2019-02-21T20:54:22.668Z,8.93
2019-02-21T20:56:50.205Z,9.17
2019-02-21T20:59:30.069Z,8.80
2019-02-21T21:02:00.852Z,8.00
2019-02-21T21:04:27.982Z,7.67
2019-02-21T21:06:55.343Z,6.97
2019-02-21T21:09:22.192Z,6.90
2019-02-21T21:11:49.486Z,6.50
2019-02-21T21:14:16.267Z,7.63
2019-02-21T21:16:46.359Z,6.00
2019-02-21T21:19:14.121Z,5.13
2019-02-21T21:21:40.796Z,5.37
2019-02-21T21:24:08.027Z,5.70
2019-02-21T21:26:34.684Z,5.63
2019-02-21T21:29:01.381Z,4.43
2019-02-21T21:31:28.098Z,5.07
2019-02-21T21:33:55.147Z,4.93
2019-02-21T21:36:23.548Z,4.90
2019-02-21T21:38:54.317Z,5.27
2019-02-21T21:41:21.517Z,5.17
2019-02-21T21:43:48.191Z,4.43
2019-02-21T21:46:14.893Z,4.87
2019-02-21T21:48:42.769Z,4.90
2019-02-21T21:51:10.025Z,4.43
2019-02-21T21:53:37.475Z,4.70
2019-02-21T21:56:04.341Z,4.23
2019-02-21T21:58:31.078Z,4.43
2019-02-21T22:01:00.236Z,4.17
2019-02-21T22:03:26.945Z,4.87
2019-02-21T22:05:53.779Z,4.67
2019-02-21T22:08:20.613Z,3.93
2019-02-21T22:10:47.606Z,3.83
2019-02-21T22:13:14.726Z,5.00
2019-02-21T22:15:41.821Z,4.37
2019-02-21T22:18:08.843Z,4.87
2019-02-21T22:20:35.964Z,4.57
2019-02-21T22:23:03.097Z,4.37
2019-02-21T22:25:31.236Z,3.90
2019-02-21T22:27:58.549Z,5.17
2019-02-21T22:30:25.724Z,4.60
2019-02-21T22:32:53.005Z,3.67
2019-02-21T22:35:20.091Z,4.90
2019-02-21T22:37:47.308Z,4.40
2019-02-21T22:40:16.629Z,4.23
2019-02-21T22:42:44.794Z,4.23
2019-02-21T22:45:12.251Z,4.23
2019-02-21T22:47:39.473Z,4.40
2019-02-21T22:50:11.946Z,4.63
2019-02-21T22:52:39.018Z,3.73
2019-02-21T22:55:10.152Z,3.83
2019-02-21T22:57:36.481Z,3.57
2019-02-21T23:00:09.114Z,3.07
2019-02-21T23:02:38.063Z,3.60
2019-02-21T23:05:10.762Z,3.50
2019-02-21T23:07:38.318Z,2.80
2019-02-21T23:10:05.466Z,3.30
2019-02-21T23:12:33.095Z,3.07
2019-02-21T23:15:00.464Z,3.00
2019-02-21T23:17:27.813Z,2.30
2019-02-21T23:19:55.043Z,2.57
2019-02-21T23:22:22.152Z,2.60
2019-02-21T23:24:49.290Z,1.87
2019-02-21T23:27:16.411Z,2.37
2019-02-21T23:29:43.559Z,1.90
2019-02-21T23:32:10.720Z,2.10
2019-02-21T23:34:39.388Z,2.63
2019-02-21T23:37:06.579Z,2.10
2019-02-21T23:39:38.454Z,2.70
2019-02-21T23:42:02.768Z,3.00
2019-02-21T23:44:29.920Z,2.43
2019-02-21T23:46:56.996Z,2.73
2019-02-21T23:49:24.124Z,2.70
2019-02-21T23:51:51.736Z,2.83
2019-02-21T23:54:18.775Z,2.17
2019-02-21T23:56:45.902Z,2.60
2019-02-21T23:59:13.135Z,2.50
